createdAt,value
2023-02-14T00:16:28.039Z,3.50
2023-02-14T00:25:47.617Z,2.80
2023-02-14T01:10:33.010Z,1.03
2023-02-14T01:13:33.774Z,2.57
2023-02-14T01:19:47.225Z,3.07
2023-02-14T01:25:23.986Z,2.47
2023-02-14T01:31:21.269Z,2.70
2023-02-14T01:34:07.876Z,1.90
2023-02-14T01:43:37.653Z,2.10
2023-02-14T01:46:45.375Z,1.90
2023-02-14T01:49:18.030Z,2.40
2023-02-14T01:51:48.549Z,2.70
2023-02-14T01:54:20.730Z,1.20
2023-02-14T01:56:51.182Z,2.63
2023-02-14T01:59:21.885Z,2.30
2023-02-14T02:01:54.044Z,4.30
2023-02-14T02:04:25.702Z,5.37
2023-02-14T02:06:56.168Z,1.63
2023-02-14T02:09:28.108Z,2.43
2023-02-14T02:11:59.791Z,2.97
2023-02-14T02:14:28.802Z,3.23
2023-02-14T02:17:14.391Z,4.50
2023-02-14T02:20:04.196Z,2.30
2023-02-14T02:22:53.117Z,4.37
2023-02-14T02:25:30.456Z,2.77
2023-02-14T02:28:14.116Z,3.50
2023-02-14T02:31:00.243Z,2.37
2023-02-14T02:33:49.932Z,1.47
2023-02-14T02:36:36.269Z,1.93
2023-02-14T02:39:15.171Z,3.43
2023-02-14T02:41:48.430Z,2.40
2023-02-14T02:44:21.028Z,2.47
2023-02-14T02:46:54.823Z,2.37
2023-02-14T02:49:45.598Z,3.00
2023-02-14T02:52:35.959Z,2.00
2023-02-14T02:55:09.463Z,3.47
2023-02-14T02:57:40.812Z,3.53
2023-02-14T03:00:10.254Z,2.50
2023-02-14T03:02:54.728Z,1.53
2023-02-14T03:05:23.808Z,4.50
2023-02-14T03:07:53.086Z,3.27
2023-02-14T03:10:25.070Z,2.00
2023-02-14T03:13:20.775Z,2.07
2023-02-14T03:15:55.209Z,2.00
2023-02-14T03:18:31.776Z,4.13
2023-02-14T03:21:05.489Z,2.73
2023-02-14T03:23:36.417Z,2.33
2023-02-14T03:26:14.273Z,2.07
2023-02-14T03:28:45.665Z,2.60
2023-02-14T03:31:19.790Z,2.83
2023-02-14T03:33:50.861Z,3.40
2023-02-14T03:36:23.290Z,3.33
2023-02-14T03:38:53.417Z,3.70
2023-02-14T03:41:25.854Z,3.90
2023-02-14T03:43:56.457Z,3.80
2023-02-14T03:46:28.687Z,3.23
2023-02-14T03:48:59.179Z,2.30
2023-02-14T03:51:28.428Z,3.37
2023-02-14T03:53:59.850Z,4.43
2023-02-14T03:56:32.560Z,2.20
2023-02-14T03:59:06.467Z,3.00
2023-02-14T04:01:37.134Z,2.57
2023-02-14T04:04:07.795Z,2.50
2023-02-14T04:06:37.162Z,2.90
2023-02-14T04:09:06.184Z,2.60
2023-02-14T04:11:38.715Z,4.00
2023-02-14T04:14:07.872Z,3.63
2023-02-14T04:16:57.428Z,2.67
2023-02-14T04:19:25.223Z,3.00
2023-02-14T04:21:53.975Z,4.23
2023-02-14T04:24:22.936Z,2.60
2023-02-14T04:27:10.456Z,2.17
2023-02-14T04:29:40.328Z,2.20
2023-02-14T04:32:10.106Z,1.90
2023-02-14T04:34:39.542Z,4.60
2023-02-14T04:37:08.895Z,1.80
2023-02-14T04:39:38.094Z,2.43
2023-02-14T04:42:08.478Z,4.03
2023-02-14T04:44:38.449Z,4.37
2023-02-14T04:47:07.467Z,2.40
2023-02-14T04:49:36.695Z,2.77
2023-02-14T04:52:05.521Z,2.20
2023-02-14T04:54:34.343Z,4.50
2023-02-14T04:57:03.244Z,4.10
2023-02-14T04:59:33.569Z,4.20
2023-02-14T05:02:02.361Z,3.20
2023-02-14T05:04:31.777Z,2.70
2023-02-14T05:07:00.642Z,2.67
2023-02-14T05:09:29.565Z,3.13
2023-02-14T05:11:58.258Z,2.97
2023-02-14T05:14:27.017Z,5.03
2023-02-14T05:16:57.228Z,2.67
2023-02-14T05:19:27.093Z,4.83
2023-02-14T05:21:55.940Z,3.40
2023-02-14T05:24:24.779Z,2.23
2023-02-14T05:26:53.630Z,5.40
2023-02-14T05:29:23.231Z,3.20
2023-02-14T05:31:52.033Z,3.70
2023-02-14T05:34:22.639Z,3.70
2023-02-14T05:36:51.375Z,3.90
2023-02-14T05:39:20.439Z,4.63
2023-02-14T05:41:49.512Z,5.27
2023-02-14T05:44:18.183Z,3.30
2023-02-14T05:46:46.913Z,3.07
2023-02-14T05:49:16.850Z,3.60
2023-02-14T05:51:46.988Z,4.23
2023-02-14T05:54:15.763Z,7.20
2023-02-14T05:56:44.692Z,3.83
2023-02-14T05:59:14.337Z,3.97
2023-02-14T06:01:44.184Z,5.40
2023-02-14T06:04:13.248Z,4.30
2023-02-14T06:06:41.967Z,3.63
2023-02-14T06:09:12.326Z,4.37
2023-02-14T06:11:41.048Z,6.57
2023-02-14T06:14:10.102Z,4.00
2023-02-14T06:16:39.034Z,4.03
2023-02-14T06:19:07.905Z,5.03
2023-02-14T06:21:36.836Z,4.83
2023-02-14T06:24:05.630Z,3.87
2023-02-14T06:26:36.785Z,5.83
2023-02-14T06:29:08.017Z,5.67
2023-02-14T06:31:36.936Z,4.97
2023-02-14T06:34:05.951Z,4.23
2023-02-14T06:36:34.766Z,4.17
2023-02-14T06:39:04.405Z,4.30
2023-02-14T06:41:33.137Z,4.10
2023-02-14T06:44:05.057Z,4.83
2023-02-14T06:46:33.873Z,4.63
2023-02-14T06:49:05.119Z,7.00
2023-02-14T06:51:33.947Z,5.80
2023-02-14T06:54:02.726Z,4.73
2023-02-14T06:56:31.871Z,4.10
2023-02-14T06:59:00.787Z,2.67
2023-02-14T07:01:31.023Z,5.13
2023-02-14T07:03:59.991Z,4.00
2023-02-14T07:06:29.036Z,5.03
2023-02-14T07:08:57.973Z,4.80
2023-02-14T07:11:26.935Z,4.00
2023-02-14T07:13:55.833Z,6.33
2023-02-14T07:16:25.288Z,8.60
2023-02-14T07:18:55.736Z,6.40
2023-02-14T07:21:25.189Z,6.47
2023-02-14T07:23:53.966Z,6.07
2023-02-14T07:26:22.795Z,5.83
2023-02-14T07:28:51.836Z,6.97
2023-02-14T07:31:22.928Z,3.93
2023-02-14T07:33:52.074Z,5.50
2023-02-14T07:36:22.636Z,6.37
2023-02-14T07:38:51.426Z,6.60
2023-02-14T07:41:20.514Z,7.10
2023-02-14T07:43:49.307Z,6.37
2023-02-14T07:46:18.738Z,7.70
2023-02-14T07:48:48.932Z,7.17
2023-02-14T07:51:18.037Z,7.23
2023-02-14T07:53:48.664Z,5.87
2023-02-14T07:56:17.614Z,6.93
2023-02-14T07:58:46.932Z,6.03
2023-02-14T08:01:16.151Z,7.23
2023-02-14T08:03:47.206Z,6.90
2023-02-14T08:06:15.987Z,5.10
2023-02-14T08:08:45.172Z,6.30
2023-02-14T08:11:36.645Z,5.97
2023-02-14T08:14:06.899Z,5.80
2023-02-14T08:16:35.687Z,6.07
2023-02-14T08:19:05.626Z,5.63
2023-02-14T08:21:34.816Z,4.37
2023-02-14T08:24:03.642Z,6.60
2023-02-14T08:26:34.136Z,8.10
2023-02-14T08:29:03.861Z,6.57
2023-02-14T08:31:36.218Z,6.70
2023-02-14T08:34:05.777Z,4.83
2023-02-14T08:36:35.263Z,6.20
2023-02-14T08:39:04.834Z,6.03
2023-02-14T08:41:35.509Z,4.77
2023-02-14T08:44:04.463Z,5.20
2023-02-14T08:46:33.828Z,6.83
2023-02-14T08:49:02.727Z,6.63
2023-02-14T08:51:31.488Z,5.37
2023-02-14T08:54:00.290Z,5.60
2023-02-14T08:56:29.231Z,7.90
2023-02-14T08:58:59.474Z,5.60
2023-02-14T09:01:29.431Z,7.00
2023-02-14T09:03:58.397Z,4.70
2023-02-14T09:06:27.149Z,5.23
2023-02-14T09:08:56.059Z,6.20
2023-02-14T09:11:25.871Z,5.50
2023-02-14T09:13:55.827Z,6.33
2023-02-14T09:16:26.945Z,6.20
2023-02-14T09:18:57.240Z,6.17
2023-02-14T09:21:27.652Z,5.63
2023-02-14T09:23:57.188Z,6.00
2023-02-14T09:26:25.922Z,6.97
2023-02-14T09:28:54.802Z,5.80
2023-02-14T09:31:25.449Z,7.33
2023-02-14T09:33:57.294Z,6.97
2023-02-14T09:36:43.459Z,6.17
2023-02-14T09:39:12.315Z,6.60
2023-02-14T09:41:56.134Z,5.87
2023-02-14T09:44:28.809Z,6.10
2023-02-14T09:46:59.630Z,6.73
2023-02-14T09:49:34.742Z,5.20
2023-02-14T09:52:04.502Z,5.63
2023-02-14T09:54:35.484Z,4.60
2023-02-14T09:57:07.125Z,5.70
2023-02-14T09:59:38.394Z,7.63
2023-02-14T10:02:20.420Z,5.97
2023-02-14T10:04:58.172Z,5.93
2023-02-14T10:07:30.312Z,6.13
2023-02-14T10:10:04.574Z,4.57
2023-02-14T10:12:34.782Z,6.17
2023-02-14T10:15:06.833Z,5.00
2023-02-14T10:17:40.847Z,6.30
2023-02-14T10:20:19.075Z,5.67
2023-02-14T10:22:53.109Z,5.73
2023-02-14T10:25:24.231Z,5.97
2023-02-14T10:27:55.441Z,7.50
2023-02-14T10:30:25.324Z,6.10
2023-02-14T10:33:03.402Z,4.90
2023-02-14T10:35:36.556Z,4.97
2023-02-14T10:38:14.540Z,5.63
2023-02-14T10:40:46.759Z,6.97
2023-02-14T10:43:19.915Z,4.13
2023-02-14T10:45:53.210Z,6.80
2023-02-14T10:48:27.280Z,6.40
2023-02-14T10:51:02.468Z,5.93
2023-02-14T10:53:37.900Z,6.73
2023-02-14T10:56:09.939Z,6.23
2023-02-14T10:58:40.828Z,4.77
2023-02-14T11:01:12.906Z,5.63
2023-02-14T11:03:44.274Z,7.47
2023-02-14T11:06:18.316Z,6.40
2023-02-14T11:08:47.558Z,6.07
2023-02-14T11:11:20.536Z,6.30
2023-02-14T11:13:49.545Z,4.63
2023-02-14T11:16:30.962Z,6.30
2023-02-14T11:19:11.522Z,7.17
2023-02-14T11:21:42.931Z,5.43
2023-02-14T11:24:19.240Z,6.67
2023-02-14T11:26:49.286Z,7.13
2023-02-14T11:29:23.845Z,6.17
2023-02-14T11:31:53.420Z,6.13
2023-02-14T11:34:26.181Z,7.00
2023-02-14T11:36:57.206Z,4.90
2023-02-14T11:39:29.961Z,6.07
2023-02-14T11:42:01.579Z,5.80
2023-02-14T11:44:33.126Z,6.87
2023-02-14T11:47:16.978Z,5.00
2023-02-14T11:49:56.503Z,6.23
2023-02-14T11:52:30.227Z,6.00
2023-02-14T11:55:00.505Z,6.90
2023-02-14T11:57:33.107Z,6.10
2023-02-14T12:00:05.130Z,5.83
2023-02-14T12:02:39.531Z,4.93
2023-02-14T12:05:17.208Z,7.10
2023-02-14T12:07:51.485Z,7.27
2023-02-14T12:10:26.486Z,4.97
2023-02-14T12:12:56.774Z,7.70
2023-02-14T12:15:28.046Z,6.30
2023-02-14T12:18:01.279Z,6.17
2023-02-14T12:20:39.070Z,6.03
2023-02-14T12:23:14.212Z,5.80
2023-02-14T12:25:46.040Z,5.50
2023-02-14T12:28:15.835Z,5.63
2023-02-14T12:33:34.017Z,5.93
2023-02-14T12:36:06.595Z,6.70
2023-02-14T12:38:44.049Z,5.93
2023-02-14T12:41:19.213Z,6.30
2023-02-14T12:43:51.135Z,5.57
2023-02-14T12:49:17.496Z,4.80
2023-02-14T12:51:51.013Z,5.53
2023-02-14T12:54:35.901Z,5.57
2023-02-14T12:57:08.754Z,5.60
2023-02-14T12:59:46.178Z,6.23
2023-02-14T13:02:30.756Z,5.20
2023-02-14T13:05:02.066Z,5.80
2023-02-14T13:07:46.563Z,6.27
2023-02-14T13:10:27.616Z,5.87
2023-02-14T13:12:59.972Z,6.20
2023-02-14T13:15:34.446Z,6.63
2023-02-14T13:18:07.518Z,5.10
2023-02-14T13:20:43.459Z,6.10
2023-02-14T13:23:15.847Z,6.03
2023-02-14T13:25:50.694Z,7.07
2023-02-14T13:28:20.978Z,5.90
2023-02-14T13:30:50.423Z,5.10
2023-02-14T13:33:29.203Z,6.13
2023-02-14T13:36:00.155Z,5.93
2023-02-14T13:38:31.849Z,4.13
2023-02-14T13:41:05.827Z,6.57
2023-02-14T13:43:55.492Z,5.47
2023-02-14T13:46:45.200Z,5.40
2023-02-14T13:49:23.638Z,7.23
2023-02-14T13:51:53.985Z,4.80
2023-02-14T13:54:24.586Z,6.20
2023-02-14T13:56:55.214Z,6.27
2023-02-14T13:59:30.278Z,4.80
2023-02-14T14:02:22.428Z,6.80
2023-02-14T14:04:51.265Z,4.80
2023-02-14T14:07:23.546Z,6.10
2023-02-14T14:10:10.884Z,6.17
2023-02-14T14:12:52.319Z,6.50
2023-02-14T14:15:28.237Z,5.50
2023-02-14T14:18:15.858Z,6.27
2023-02-14T14:20:50.204Z,5.73
2023-02-14T14:23:31.103Z,5.03
2023-02-14T14:26:00.780Z,5.10
2023-02-14T14:28:35.968Z,7.57
2023-02-14T14:31:05.171Z,5.80
2023-02-14T14:33:35.283Z,5.90
2023-02-14T14:36:07.657Z,7.40
2023-02-14T14:38:47.762Z,6.73
2023-02-14T14:41:16.770Z,5.20
2023-02-14T14:43:47.301Z,4.00
2023-02-14T14:46:17.368Z,6.63
2023-02-14T14:48:49.613Z,4.27
2023-02-14T14:51:21.598Z,6.70
2023-02-14T14:53:52.870Z,5.33
2023-02-14T14:56:24.025Z,6.23
2023-02-14T14:58:54.815Z,4.43
2023-02-14T15:01:34.577Z,6.20
2023-02-14T15:04:13.821Z,5.33
2023-02-14T15:06:43.271Z,6.67
2023-02-14T15:09:16.741Z,6.33
2023-02-14T15:12:03.821Z,6.63
2023-02-14T15:14:36.319Z,6.93
2023-02-14T15:17:06.848Z,6.70
2023-02-14T15:19:39.130Z,7.60
2023-02-14T15:22:09.178Z,8.47
2023-02-14T15:24:40.321Z,5.93
2023-02-14T15:27:15.833Z,7.73
2023-02-14T15:29:55.255Z,5.27
2023-02-14T15:32:24.468Z,6.50
2023-02-14T15:34:53.621Z,5.00
2023-02-14T15:37:42.928Z,6.70
2023-02-14T15:40:19.626Z,4.53
2023-02-14T15:42:48.918Z,6.13
2023-02-14T15:45:23.953Z,5.53
2023-02-14T15:47:54.034Z,8.73
2023-02-14T15:50:26.296Z,7.53
2023-02-14T15:52:57.718Z,5.57
2023-02-14T15:55:30.875Z,6.40
2023-02-14T15:58:02.013Z,5.00
2023-02-14T16:03:30.695Z,5.57
2023-02-14T16:09:25.259Z,4.00
2023-02-14T16:11:55.821Z,4.90
2023-02-14T16:14:46.997Z,6.43
2023-02-14T16:17:20.492Z,6.37
2023-02-14T16:20:06.398Z,5.47
2023-02-14T16:22:39.344Z,4.37
2023-02-14T16:27:57.567Z,5.30
2023-02-14T16:30:26.606Z,4.60
2023-02-14T16:32:57.441Z,5.53
2023-02-14T16:35:28.066Z,4.20
2023-02-14T16:37:57.180Z,5.70
2023-02-14T16:40:27.947Z,5.83
2023-02-14T16:42:58.103Z,5.80
2023-02-14T16:45:27.036Z,7.50
2023-02-14T16:47:56.235Z,5.57
2023-02-14T16:50:26.353Z,6.50
2023-02-14T16:53:14.721Z,6.03
2023-02-14T16:55:44.667Z,5.47
2023-02-14T16:58:18.247Z,6.40
2023-02-14T17:00:47.972Z,4.10
2023-02-14T17:03:18.857Z,6.00
2023-02-14T17:05:48.279Z,6.67
2023-02-14T17:08:22.446Z,5.23
2023-02-14T17:10:56.952Z,8.10
2023-02-14T17:13:29.900Z,5.20
2023-02-14T17:16:01.846Z,5.57
2023-02-14T17:18:33.601Z,6.20
2023-02-14T17:21:03.074Z,7.83
2023-02-14T17:23:35.386Z,6.43
2023-02-14T17:26:04.648Z,5.60
2023-02-14T17:28:34.084Z,9.43
2023-02-14T17:31:04.396Z,13.23
2023-02-14T17:33:35.581Z,10.10
2023-02-14T17:36:14.146Z,8.40
2023-02-14T17:38:45.251Z,6.70
2023-02-14T17:41:15.450Z,7.33
2023-02-14T17:43:44.548Z,7.73
2023-02-14T17:46:14.513Z,8.60
2023-02-14T17:48:45.925Z,7.57
2023-02-14T17:51:15.772Z,7.93
2023-02-14T17:53:52.873Z,9.73
2023-02-14T17:56:23.564Z,11.63
2023-02-14T17:58:53.495Z,10.53
2023-02-14T18:01:24.022Z,7.83
2023-02-14T18:03:53.250Z,9.30
2023-02-14T18:06:22.245Z,9.87
2023-02-14T18:08:53.872Z,7.90
2023-02-14T18:11:23.285Z,7.67
2023-02-14T18:13:52.461Z,7.20
2023-02-14T18:16:22.548Z,6.90
2023-02-14T18:18:51.327Z,6.33
2023-02-14T18:21:22.904Z,7.20
2023-02-14T18:23:54.730Z,8.23
2023-02-14T18:26:24.318Z,8.63
2023-02-14T18:29:07.098Z,8.63
2023-02-14T18:37:47.306Z,15.67
2023-02-14T18:43:46.987Z,10.40
2023-02-14T18:46:18.947Z,8.70
2023-02-14T18:48:49.119Z,9.03
2023-02-14T18:51:20.827Z,7.90
2023-02-14T18:57:14.128Z,11.73
2023-02-14T19:06:04.824Z,12.80
2023-02-14T19:08:37.565Z,15.23
2023-02-14T19:14:30.365Z,14.10
2023-02-14T19:20:24.681Z,14.10
2023-02-14T19:23:34.165Z,13.93
2023-02-14T19:26:28.504Z,13.07
2023-02-14T19:32:10.466Z,25.40
2023-02-14T19:34:41.939Z,19.93
2023-02-14T19:37:15.351Z,10.30
2023-02-14T19:39:50.363Z,13.90
2023-02-14T19:42:29.645Z,10.10
2023-02-14T19:45:00.397Z,16.13
2023-02-14T19:47:45.938Z,16.93
2023-02-14T19:50:16.352Z,22.57
2023-02-14T19:52:45.625Z,18.10
2023-02-14T19:55:22.500Z,14.73
2023-02-14T19:57:53.271Z,22.33
2023-02-14T20:00:24.839Z,19.77
2023-02-14T20:02:54.088Z,16.80
2023-02-14T20:05:23.722Z,16.50
2023-02-14T20:07:55.757Z,10.60
2023-02-14T20:10:24.630Z,8.30
2023-02-14T20:12:55.872Z,9.17
2023-02-14T20:15:26.992Z,15.37
2023-02-14T20:18:10.449Z,15.10
2023-02-14T20:20:53.424Z,11.53
2023-02-14T20:23:24.686Z,10.03
2023-02-14T20:25:53.994Z,8.57
2023-02-14T20:28:32.836Z,7.20
2023-02-14T20:31:09.710Z,8.20
2023-02-14T20:33:40.779Z,7.73
2023-02-14T20:36:12.594Z,10.20
2023-02-14T20:38:41.901Z,8.53
2023-02-14T20:41:13.581Z,16.53
2023-02-14T20:43:47.334Z,11.03
2023-02-14T20:46:17.574Z,7.43
2023-02-14T20:48:54.352Z,10.00
2023-02-14T20:51:24.056Z,7.67
2023-02-14T20:54:00.105Z,10.10
2023-02-14T20:56:29.105Z,8.47
2023-02-14T20:59:02.546Z,7.23
2023-02-14T21:01:32.696Z,5.80
2023-02-14T21:04:02.329Z,7.07
2023-02-14T21:06:34.139Z,9.07
2023-02-14T21:09:04.058Z,8.70
2023-02-14T21:11:33.804Z,7.40
2023-02-14T21:14:05.921Z,5.80
2023-02-14T21:16:34.974Z,7.30
2023-02-14T21:19:08.492Z,6.37
2023-02-14T21:21:39.943Z,6.50
2023-02-14T21:24:12.826Z,11.07
2023-02-14T21:26:44.185Z,7.47
2023-02-14T21:29:17.213Z,6.60
2023-02-14T21:31:47.655Z,7.67
2023-02-14T21:34:18.128Z,7.27
2023-02-14T21:36:47.401Z,7.70
2023-02-14T21:39:16.596Z,6.10
2023-02-14T21:41:59.281Z,5.50
2023-02-14T21:44:48.342Z,7.90
2023-02-14T21:47:17.506Z,5.43
2023-02-14T21:50:03.744Z,3.53
2023-02-14T21:52:32.960Z,4.70
2023-02-14T21:55:05.276Z,6.50
2023-02-14T21:57:34.542Z,6.80
2023-02-14T22:00:06.096Z,6.47
2023-02-14T22:02:35.475Z,5.33
2023-02-14T22:05:06.723Z,6.13
2023-02-14T22:07:38.146Z,4.83
2023-02-14T22:10:10.048Z,6.83
2023-02-14T22:12:40.528Z,5.70
2023-02-14T22:15:13.561Z,5.80
2023-02-14T22:17:43.245Z,6.03
2023-02-14T22:20:14.153Z,5.00
2023-02-14T22:22:43.149Z,6.20
2023-02-14T22:25:12.373Z,6.23
2023-02-14T22:27:41.977Z,5.93
2023-02-14T22:30:13.390Z,7.03
2023-02-14T22:39:11.708Z,8.10
2023-02-14T22:41:44.722Z,4.03
2023-02-14T23:04:01.309Z,5.80
2023-02-14T23:25:59.335Z,7.93
2023-02-14T23:34:51.104Z,6.57
2023-02-14T23:40:41.468Z,9.67
2023-02-14T23:55:25.861Z,6.30
